Time;durP1;ratioP1;P1;durP2;ratioP2;P2;SDS_P1;SDS_P2;PMS_P1;PMS_P2;Temp;Humidity;BMP_temperature;BMP_pressure;BME280_temperature;BME280_humidity;BME280_pressure;Samples;Min_cycle;Max_cycle;Signal;HPM_P1;HPM_P2
2022/08/29 00:02:20;;;;;;;13.20;12.10;;;19.60;99.90;;;;;;5026384;28;20506;-82
2022/08/29 00:04:47;;;;;;;12.83;11.53;;;19.60;99.90;;;;;;5020929;28;20454;-83
2022/08/29 00:07:13;;;;;;;11.40;10.30;;;19.60;99.90;;;;;;5020661;28;20446;-82
2022/08/29 00:09:40;;;;;;;12.60;11.50;;;19.50;99.90;;;;;;5020165;28;20464;-83
2022/08/29 00:12:07;;;;;;;12.90;11.70;;;19.50;99.90;;;;;;5020452;28;20466;-82
2022/08/29 00:14:34;;;;;;;12.53;11.37;;;19.40;99.90;;;;;;5021225;28;20469;-82
2022/08/29 00:17:02;;;;;;;10.73;9.83;;;19.40;99.90;;;;;;5021490;28;20516;-82
2022/08/29 00:19:29;;;;;;;11.87;10.73;;;19.40;99.90;;;;;;5021157;28;20445;-82
2022/08/29 00:21:56;;;;;;;11.63;10.50;;;19.30;99.90;;;;;;5020452;28;20474;-82
2022/08/29 00:24:22;;;;;;;12.60;11.30;;;19.20;99.90;;;;;;5019858;28;20455;-83
2022/08/29 00:26:49;;;;;;;12.80;11.30;;;19.10;99.90;;;;;;5020456;28;20863;-83
2022/08/29 00:29:16;;;;;;;12.20;11.10;;;19.10;99.90;;;;;;5020286;28;20482;-82
2022/08/29 00:31:42;;;;;;;12.40;11.30;;;19.10;99.90;;;;;;5020622;28;20501;-84
2022/08/29 00:34:10;;;;;;;12.77;11.67;;;19.00;99.90;;;;;;5020714;28;20458;-83
2022/08/29 00:36:37;;;;;;;12.97;11.20;;;19.00;99.90;;;;;;5020806;28;20458;-83
2022/08/29 00:39:05;;;;;;;12.03;10.93;;;19.00;99.90;;;;;;5020815;28;20449;-83
2022/08/29 00:41:31;;;;;;;13.33;11.37;;;19.00;99.90;;;;;;5020831;28;20979;-83
2022/08/29 00:43:58;;;;;;;12.87;11.77;;;19.00;99.90;;;;;;5027303;28;20851;-83
2022/08/29 00:46:45;;;;;;;18.33;11.53;;;18.90;99.90;;;;;;5035999;28;20514;-84
2022/08/29 00:49:32;;;;;;;11.70;10.63;;;18.90;99.90;;;;;;5021643;28;20486;-84
2022/08/29 00:52:04;;;;;;;13.10;12.00;;;18.90;99.90;;;;;;5021348;28;20466;-83
2022/08/29 00:54:31;;;;;;;13.00;11.70;;;18.90;99.90;;;;;;5020828;28;20990;-81
2022/08/29 00:56:58;;;;;;;11.30;10.13;;;18.80;99.90;;;;;;5020800;28;20450;-82
2022/08/29 00:59:31;;;;;;;12.97;11.87;;;18.80;99.90;;;;;;5023084;28;20470;-83
2022/08/29 01:01:58;;;;;;;10.97;10.00;;;18.80;99.90;;;;;;5032411;28;20477;-83
2022/08/29 01:04:26;;;;;;;11.17;10.13;;;18.70;99.90;;;;;;5024949;28;20443;-82
2022/08/29 01:06:53;;;;;;;13.60;12.47;;;18.80;99.90;;;;;;5037838;28;20461;-82
2022/08/29 01:09:20;;;;;;;14.30;11.90;;;18.80;99.90;;;;;;5028190;28;20575;-82
2022/08/29 01:14:32;;;;;;;12.80;11.50;;;18.80;99.90;;;;;;5021200;28;20487;-83
2022/08/29 01:17:00;;;;;;;13.40;12.20;;;18.80;99.90;;;;;;5021292;28;20518;-81
2022/08/29 01:19:45;;;;;;;13.43;12.27;;;18.80;99.90;;;;;;5020532;28;20859;-82
2022/08/29 01:22:22;;;;;;;13.63;12.43;;;18.70;99.90;;;;;;5026943;28;20493;-83
2022/08/29 01:24:53;;;;;;;13.73;12.40;;;18.70;99.90;;;;;;5032880;28;20951;-82
2022/08/29 01:27:22;;;;;;;13.33;12.13;;;18.60;99.90;;;;;;5031849;28;20458;-83
2022/08/29 01:29:49;;;;;;;14.53;13.33;;;18.60;99.90;;;;;;5027889;28;20491;-83
2022/08/29 01:32:16;;;;;;;13.50;12.17;;;18.60;99.90;;;;;;5030560;28;20533;-83
2022/08/29 01:34:43;;;;;;;12.70;11.70;;;18.60;99.90;;;;;;5020233;28;20454;-83
2022/08/29 01:37:13;;;;;;;13.80;12.50;;;18.50;99.90;;;;;;5018566;28;20509;-82
2022/08/29 01:39:41;;;;;;;11.83;10.70;;;18.50;99.90;;;;;;5016495;28;20509;-82
2022/08/29 01:42:11;;;;;;;12.60;11.50;;;18.40;99.90;;;;;;5019111;28;20462;-82
2022/08/29 01:44:38;;;;;;;12.33;11.23;;;18.40;99.90;;;;;;5019788;28;20455;-82
2022/08/29 01:47:07;;;;;;;12.77;11.77;;;18.40;99.90;;;;;;5026205;28;20453;-82
2022/08/29 01:49:37;;;;;;;14.83;12.90;;;18.40;99.90;;;;;;5031713;28;20479;-82
2022/08/29 01:52:05;;;;;;;14.07;12.50;;;18.40;99.90;;;;;;5038250;28;20455;-82
2022/08/29 01:54:33;;;;;;;14.40;13.07;;;18.40;99.90;;;;;;5036978;28;20442;-82
2022/08/29 01:57:00;;;;;;;15.77;14.30;;;18.30;99.90;;;;;;5026992;28;20442;-82
2022/08/29 01:59:32;;;;;;;21.30;15.53;;;18.30;99.90;;;;;;5020898;28;20462;-82
2022/08/29 02:02:02;;;;;;;15.17;13.87;;;18.30;99.90;;;;;;5019829;28;20822;-82
2022/08/29 02:04:30;;;;;;;16.07;14.37;;;18.20;99.90;;;;;;5021186;28;20501;-82
2022/08/29 02:06:56;;;;;;;16.37;14.70;;;18.20;99.90;;;;;;5030410;28;20442;-83
2022/08/29 02:09:23;;;;;;;14.97;13.43;;;18.20;99.90;;;;;;5029650;28;20486;-83
2022/08/29 02:11:51;;;;;;;16.70;15.10;;;18.20;99.90;;;;;;5028272;28;20467;-82
2022/08/29 02:14:18;;;;;;;16.20;14.80;;;18.20;99.90;;;;;;5037566;28;20466;-82
2022/08/29 02:16:47;;;;;;;16.63;15.10;;;18.20;99.90;;;;;;5031809;28;20461;-83
2022/08/29 02:19:13;;;;;;;16.73;15.23;;;18.10;99.90;;;;;;5019427;28;20443;-83
2022/08/29 02:21:40;;;;;;;18.83;16.03;;;18.10;99.90;;;;;;5018568;28;20477;-83
2022/08/29 02:24:07;;;;;;;18.20;16.50;;;18.10;99.90;;;;;;5018307;28;20823;-83
2022/08/29 02:26:34;;;;;;;17.87;15.23;;;18.10;99.90;;;;;;5018751;28;20978;-83
2022/08/29 02:29:01;;;;;;;17.83;15.87;;;18.10;99.90;;;;;;5019557;28;20489;-83
2022/08/29 02:31:28;;;;;;;18.13;15.50;;;18.10;99.90;;;;;;5019168;28;20451;-83
2022/08/29 02:33:57;;;;;;;17.40;15.10;;;18.00;99.90;;;;;;5019027;28;20454;-83
2022/08/29 02:39:45;;;;;;;16.53;14.93;;;17.90;99.90;;;;;;5025297;28;20401;-83
2022/08/29 02:42:12;;;;;;;18.87;17.10;;;17.90;99.90;;;;;;5019143;28;20466;-83
2022/08/29 02:44:38;;;;;;;18.27;16.30;;;17.90;99.90;;;;;;5018693;28;20939;-83
2022/08/29 02:47:07;;;;;;;18.60;16.17;;;17.90;99.90;;;;;;5018747;28;20456;-83
2022/08/29 02:49:35;;;;;;;20.33;15.87;;;17.80;99.90;;;;;;5036907;28;20497;-83
2022/08/29 02:52:05;;;;;;;17.20;15.70;;;17.90;99.90;;;;;;5021942;28;20545;-83
2022/08/29 02:54:32;;;;;;;18.40;16.67;;;17.80;99.90;;;;;;5019611;28;20488;-83
2022/08/29 02:56:58;;;;;;;19.33;17.10;;;17.80;99.90;;;;;;5018516;28;20461;-83
2022/08/29 02:59:26;;;;;;;18.80;17.10;;;17.80;99.90;;;;;;5018160;28;20447;-83
2022/08/29 03:01:53;;;;;;;16.93;15.50;;;17.70;99.90;;;;;;5018043;28;20679;-83
2022/08/29 03:04:20;;;;;;;18.10;16.10;;;17.80;99.90;;;;;;5017689;28;21872;-83
2022/08/29 03:06:48;;;;;;;19.03;16.83;;;17.80;99.90;;;;;;5017567;28;20438;-83
2022/08/29 03:09:14;;;;;;;16.67;14.97;;;17.80;99.90;;;;;;5018055;28;20497;-83
2022/08/29 03:11:41;;;;;;;18.17;16.37;;;17.70;99.90;;;;;;5018559;28;20898;-81
2022/08/29 03:14:08;;;;;;;19.33;17.40;;;17.70;99.90;;;;;;5019885;28;20437;-80
2022/08/29 03:16:35;;;;;;;18.17;16.33;;;17.70;99.90;;;;;;5019096;28;20470;-82
2022/08/29 03:19:02;;;;;;;16.43;15.00;;;17.70;99.90;;;;;;5019360;28;20447;-84
2022/08/29 03:21:28;;;;;;;16.60;15.10;;;17.70;99.90;;;;;;5025857;28;20431;-83
2022/08/29 03:23:56;;;;;;;18.07;16.40;;;17.70;99.90;;;;;;5037084;28;20534;-82
2022/08/29 03:26:23;;;;;;;19.00;17.20;;;17.70;99.90;;;;;;5026069;28;20865;-82
2022/08/29 03:28:50;;;;;;;18.83;16.83;;;17.70;99.90;;;;;;5022938;28;20493;-83
2022/08/29 03:31:17;;;;;;;16.60;15.10;;;17.60;99.90;;;;;;5021031;28;20450;-83
2022/08/29 03:33:44;;;;;;;16.10;14.60;;;17.70;99.90;;;;;;5022440;28;20462;-83
2022/08/29 03:36:11;;;;;;;16.73;15.00;;;17.60;99.90;;;;;;5029918;28;20505;-82
2022/08/29 03:38:38;;;;;;;14.50;13.07;;;17.70;99.90;;;;;;5039414;28;20521;-82
2022/08/29 03:41:07;;;;;;;14.83;13.53;;;17.70;99.90;;;;;;5039419;28;20483;-83
2022/08/29 03:43:34;;;;;;;15.03;13.70;;;17.70;99.90;;;;;;5025182;28;20470;-82
2022/08/29 03:46:01;;;;;;;16.03;14.37;;;17.70;99.90;;;;;;5021636;28;20459;-83
2022/08/29 03:48:27;;;;;;;15.30;13.80;;;17.70;99.90;;;;;;5021806;28;20456;-83
2022/08/29 03:50:54;;;;;;;15.77;13.37;;;17.70;99.90;;;;;;5022309;28;20821;-83
2022/08/29 03:53:21;;;;;;;17.43;12.30;;;17.60;99.90;;;;;;5021509;28;20505;-83
2022/08/29 03:55:47;;;;;;;14.47;13.17;;;17.60;99.90;;;;;;5021287;28;20446;-83
2022/08/29 03:58:16;;;;;;;14.40;13.00;;;17.60;99.90;;;;;;5022351;28;20454;-83
2022/08/29 04:00:45;;;;;;;14.13;12.90;;;17.60;99.90;;;;;;5020217;28;20453;-83
2022/08/29 04:03:12;;;;;;;15.20;13.77;;;17.60;99.90;;;;;;5020985;28;20912;-83
2022/08/29 04:05:38;;;;;;;13.57;12.30;;;17.60;99.90;;;;;;5021069;28;20855;-83
2022/08/29 04:08:06;;;;;;;16.03;14.23;;;17.50;99.90;;;;;;5021541;28;20443;-83
2022/08/29 04:10:36;;;;;;;14.93;13.03;;;17.60;99.90;;;;;;5021399;28;20486;-83
2022/08/29 04:13:03;;;;;;;13.57;12.23;;;17.50;99.90;;;;;;5021522;28;20818;-83
2022/08/29 04:15:32;;;;;;;13.20;11.97;;;17.50;99.90;;;;;;5021812;28;20466;-82
2022/08/29 04:18:00;;;;;;;13.33;12.00;;;17.50;99.90;;;;;;5021029;28;20457;-83
2022/08/29 04:20:29;;;;;;;14.40;12.93;;;17.50;99.90;;;;;;5020678;28;20466;-82
2022/08/29 04:22:58;;;;;;;15.53;14.03;;;17.50;99.90;;;;;;5021963;28;20478;-83
2022/08/29 04:25:26;;;;;;;14.87;13.37;;;17.50;99.90;;;;;;5021054;28;20458;-83
2022/08/29 04:27:54;;;;;;;14.23;12.80;;;17.50;99.90;;;;;;5021800;28;20806;-83
2022/08/29 04:30:23;;;;;;;13.00;11.70;;;17.40;99.90;;;;;;5034970;28;20477;-82
2022/08/29 04:32:51;;;;;;;15.17;12.47;;;17.40;99.90;;;;;;5038683;28;20481;-83
2022/08/29 04:35:18;;;;;;;14.03;12.80;;;17.40;99.90;;;;;;5024814;28;20470;-83
2022/08/29 04:37:45;;;;;;;13.17;11.83;;;17.50;99.90;;;;;;5033642;28;20469;-82
2022/08/29 04:40:15;;;;;;;14.37;12.07;;;17.40;99.90;;;;;;5029474;28;20450;-83
2022/08/29 04:42:42;;;;;;;15.57;13.13;;;17.30;99.90;;;;;;5021490;28;20974;-83
2022/08/29 04:45:11;;;;;;;13.13;11.93;;;17.40;99.90;;;;;;5020941;28;20836;-82
2022/08/29 04:47:38;;;;;;;14.00;12.67;;;17.30;99.90;;;;;;5035728;28;20450;-82
2022/08/29 04:50:08;;;;;;;15.30;13.80;;;17.40;99.90;;;;;;5033003;28;20480;-83
2022/08/29 04:52:36;;;;;;;17.00;13.37;;;17.30;99.90;;;;;;5033527;28;20715;-82
2022/08/29 04:55:03;;;;;;;14.97;13.50;;;17.30;99.90;;;;;;5036386;28;20430;-83
2022/08/29 04:57:30;;;;;;;14.07;12.77;;;17.30;99.90;;;;;;5024765;28;20450;-82
2022/08/29 04:59:58;;;;;;;15.27;13.40;;;17.30;99.90;;;;;;5022517;28;20469;-83
2022/08/29 05:02:26;;;;;;;14.97;13.40;;;17.30;99.90;;;;;;5021087;28;20470;-83
2022/08/29 05:04:55;;;;;;;14.53;12.67;;;17.30;99.90;;;;;;5019233;28;20455;-83
2022/08/29 05:07:25;;;;;;;14.83;13.33;;;17.20;99.90;;;;;;5020437;28;20458;-82
2022/08/29 05:09:58;;;;;;;14.13;12.73;;;17.30;99.90;;;;;;5021317;28;20494;-82
2022/08/29 05:12:25;;;;;;;15.27;12.90;;;17.40;99.90;;;;;;5019501;28;20881;-82
2022/08/29 05:14:53;;;;;;;14.67;13.17;;;17.60;99.90;;;;;;5021032;28;20824;-82
2022/08/29 05:17:20;;;;;;;15.63;14.10;;;17.80;99.90;;;;;;5020802;28;20549;-83
2022/08/29 05:19:48;;;;;;;14.30;12.83;;;17.90;99.90;;;;;;5020052;28;20446;-82
2022/08/29 05:22:16;;;;;;;14.13;12.60;;;17.90;99.90;;;;;;5019323;28;20472;-83
2022/08/29 05:24:44;;;;;;;13.77;12.60;;;17.90;99.90;;;;;;5018407;28;20435;-82
2022/08/29 05:27:13;;;;;;;13.43;12.17;;;17.90;99.90;;;;;;5022655;28;20482;-82
2022/08/29 05:29:40;;;;;;;14.27;12.97;;;17.80;99.90;;;;;;5031111;28;20478;-82
2022/08/29 05:32:09;;;;;;;15.07;13.47;;;17.80;99.90;;;;;;5032031;28;20673;-82
2022/08/29 05:34:37;;;;;;;13.37;12.07;;;17.90;99.90;;;;;;5021205;28;20450;-82
2022/08/29 05:37:06;;;;;;;13.83;12.33;;;17.80;99.90;;;;;;5019270;28;20482;-82
2022/08/29 05:39:34;;;;;;;16.13;13.27;;;17.80;99.90;;;;;;5035493;28;20435;-82
2022/08/29 05:42:02;;;;;;;14.40;12.90;;;17.90;99.90;;;;;;5033906;28;20505;-82
2022/08/29 05:44:31;;;;;;;14.37;12.40;;;17.90;99.90;;;;;;5021750;28;20444;-82
2022/08/29 05:46:58;;;;;;;14.93;12.67;;;17.90;99.90;;;;;;5019279;28;20520;-82
2022/08/29 05:49:26;;;;;;;14.50;13.20;;;18.00;99.90;;;;;;5019982;28;20486;-82
2022/08/29 05:51:53;;;;;;;15.00;13.60;;;18.00;99.90;;;;;;5020621;28;20466;-82
2022/08/29 05:54:20;;;;;;;15.17;13.20;;;18.10;99.90;;;;;;5020411;28;20458;-83
2022/08/29 05:56:47;;;;;;;14.30;12.83;;;18.10;99.90;;;;;;5019694;28;20447;-83
2022/08/29 05:59:16;;;;;;;16.00;14.47;;;18.20;99.90;;;;;;5020674;28;21025;-83
2022/08/29 06:01:44;;;;;;;16.90;15.30;;;18.20;99.90;;;;;;5038707;23;20469;-81
2022/08/29 06:04:11;;;;;;;14.60;13.30;;;18.20;99.90;;;;;;5069920;28;20449;-84
2022/08/29 06:06:40;;;;;;;17.63;13.73;;;18.20;99.90;;;;;;5057103;28;20448;-82
2022/08/29 06:09:08;;;;;;;16.33;14.73;;;18.30;99.90;;;;;;5056132;28;20933;-82
2022/08/29 06:11:35;;;;;;;17.13;14.17;;;18.30;99.90;;;;;;5065075;28;20518;-84
2022/08/29 06:14:02;;;;;;;16.20;14.10;;;18.30;99.90;;;;;;5072394;28;20441;-84
2022/08/29 06:16:31;;;;;;;18.97;15.60;;;18.50;99.90;;;;;;5062956;28;20440;-81
2022/08/29 06:18:58;;;;;;;15.90;14.40;;;18.60;99.90;;;;;;5056640;28;20459;-81
2022/08/29 06:21:25;;;;;;;13.83;12.70;;;19.10;99.90;;;;;;5055837;28;20445;-80
2022/08/29 06:23:52;;;;;;;16.23;14.57;;;20.00;99.90;;;;;;5056450;28;20453;-82
2022/08/29 06:26:19;;;;;;;15.23;13.43;;;20.90;99.90;;;;;;5055870;28;20449;-83
2022/08/29 06:28:46;;;;;;;14.07;12.77;;;22.00;99.90;;;;;;5061023;28;20476;-83
2022/08/29 06:31:16;;;;;;;14.43;12.93;;;22.80;99.90;;;;;;5056626;28;20496;-83
2022/08/29 06:33:44;;;;;;;14.57;13.17;;;23.50;99.90;;;;;;5055145;28;20452;-83
2022/08/29 06:36:12;;;;;;;13.00;11.90;;;24.60;99.90;;;;;;5054790;28;20877;-84
2022/08/29 06:38:39;;;;;;;13.40;12.10;;;25.20;97.40;;;;;;5055743;28;20454;-83
2022/08/29 06:41:08;;;;;;;13.07;11.90;;;26.30;95.60;;;;;;5064019;28;20876;-82
2022/08/29 06:43:34;;;;;;;11.67;10.77;;;27.00;92.40;;;;;;5069258;28;20472;-84
2022/08/29 06:46:01;;;;;;;13.17;11.87;;;27.80;90.20;;;;;;5056753;28;20497;-83
2022/08/29 06:48:28;;;;;;;12.30;11.33;;;28.40;85.70;;;;;;5055934;28;20451;-82
2022/08/29 06:50:57;;;;;;;15.10;13.77;;;28.70;82.20;;;;;;5054880;28;20888;-82
2022/08/29 06:53:25;;;;;;;11.63;10.53;;;29.20;80.10;;;;;;5055763;28;20461;-82
2022/08/29 06:55:52;;;;;;;11.23;10.23;;;29.80;76.80;;;;;;5055977;28;20465;-82
2022/08/29 06:58:19;;;;;;;12.10;11.10;;;29.80;74.50;;;;;;5057463;28;20455;-82
2022/08/29 07:00:46;;;;;;;11.73;10.63;;;30.10;72.90;;;;;;5058620;28;20443;-82
2022/08/29 07:03:13;;;;;;;11.47;10.40;;;30.40;70.80;;;;;;5059218;28;20851;-82
2022/08/29 07:05:39;;;;;;;11.10;10.10;;;31.00;69.30;;;;;;5060214;28;20482;-82
2022/08/29 07:08:08;;;;;;;11.63;10.50;;;31.20;67.60;;;;;;5058621;28;20449;-81
2022/08/29 07:10:34;;;;;;;10.50;9.50;;;31.20;65.60;;;;;;5056869;28;20481;-80
2022/08/29 07:13:01;;;;;;;10.60;9.73;;;31.00;65.80;;;;;;5062024;28;20468;-82
2022/08/29 07:15:28;;;;;;;11.47;10.03;;;31.50;64.20;;;;;;5062522;28;20504;-81
2022/08/29 07:17:54;;;;;;;10.20;9.40;;;32.00;62.40;;;;;;5059108;28;20452;-82
2022/08/29 07:20:21;;;;;;;10.90;9.20;;;32.20;60.20;;;;;;5058435;28;20452;-82
2022/08/29 07:22:50;;;;;;;9.27;8.47;;;32.70;59.50;;;;;;5058016;28;20914;-82
2022/08/29 07:25:18;;;;;;;10.57;9.67;;;33.10;57.80;;;;;;5058986;28;20455;-82
2022/08/29 07:27:45;;;;;;;9.50;8.80;;;33.70;56.90;;;;;;5058495;28;20534;-82
2022/08/29 07:30:15;;;;;;;10.27;9.23;;;33.30;56.50;;;;;;5058539;28;20481;-81
2022/08/29 07:32:43;;;;;;;11.10;10.10;;;33.50;56.50;;;;;;5058577;28;20565;-81
2022/08/29 07:35:10;;;;;;;10.70;9.70;;;33.70;55.90;;;;;;5071519;28;20444;-80
2022/08/29 07:37:37;;;;;;;11.50;10.57;;;34.10;54.90;;;;;;5078161;28;20448;-81
2022/08/29 07:40:05;;;;;;;12.37;11.17;;;33.90;54.70;;;;;;5073892;28;20440;-82
2022/08/29 07:42:33;;;;;;;11.90;10.77;;;32.60;55.80;;;;;;5062547;28;21019;-81
2022/08/29 07:45:00;;;;;;;12.60;10.40;;;31.20;59.00;;;;;;5060569;28;20455;-81
2022/08/29 07:47:27;;;;;;;12.00;10.57;;;30.60;59.80;;;;;;5059714;28;20956;-81
2022/08/29 07:49:54;;;;;;;10.40;9.40;;;29.90;62.10;;;;;;5059039;28;21010;-81
2022/08/29 07:52:21;;;;;;;9.83;8.90;;;30.00;62.60;;;;;;5059826;28;20476;-81
2022/08/29 07:54:48;;;;;;;9.90;8.97;;;30.40;62.10;;;;;;5070218;28;20452;-82
2022/08/29 07:57:16;;;;;;;12.13;10.93;;;30.40;61.40;;;;;;5065024;28;20446;-82
2022/08/29 07:59:45;;;;;;;11.53;10.43;;;29.70;62.60;;;;;;5058553;28;20884;-81
2022/08/29 08:02:11;;;;;;;11.23;9.37;;;29.00;66.30;;;;;;5058033;28;20855;-83
2022/08/29 08:04:38;;;;;;;10.40;9.40;;;28.30;67.20;;;;;;5058986;28;20451;-83
2022/08/29 08:07:05;;;;;;;11.23;10.27;;;27.70;69.30;;;;;;5061610;28;20433;-84
2022/08/29 08:09:32;;;;;;;11.80;10.70;;;27.10;71.80;;;;;;5070773;28;20816;-81
2022/08/29 08:12:00;;;;;;;11.37;10.10;;;26.90;73.20;;;;;;5069593;28;20524;-82
2022/08/29 08:14:27;;;;;;;10.73;9.73;;;27.00;73.80;;;;;;5059490;28;20452;-84
2022/08/29 08:16:54;;;;;;;9.53;8.63;;;27.80;72.80;;;;;;5059795;28;21002;-82
2022/08/29 08:19:21;;;;;;;12.43;10.47;;;28.90;69.60;;;;;;5065430;28;20450;-84
2022/08/29 08:21:48;;;;;;;11.40;10.40;;;28.70;67.50;;;;;;5075500;28;20458;-82
2022/08/29 08:24:15;;;;;;;13.80;10.63;;;27.70;70.50;;;;;;5065855;28;20454;-83
2022/08/29 08:26:41;;;;;;;12.87;10.07;;;27.10;73.40;;;;;;5058925;28;20456;-82
2022/08/29 08:29:11;;;;;;;11.10;10.10;;;26.70;76.30;;;;;;5058963;28;20778;-85
2022/08/29 08:31:42;;;;;;;10.37;9.37;;;26.60;77.00;;;;;;5062418;28;20491;-85
2022/08/29 08:34:14;;;;;;;11.60;10.23;;;27.60;75.90;;;;;;5058374;28;20448;-86
2022/08/29 08:36:43;;;;;;;12.20;9.80;;;29.50;70.20;;;;;;5062388;28;20443;-84
2022/08/29 08:39:10;;;;;;;9.77;8.97;;;30.00;66.80;;;;;;5063600;28;20480;-85
2022/08/29 08:41:50;;;;;;;22.67;20.73;;;30.30;65.50;;;;;;5061691;28;20471;-85
2022/08/29 08:44:43;;;;;;;9.57;8.77;;;32.50;61.70;;;;;;5060394;28;20452;-85
2022/08/29 08:47:11;;;;;;;10.87;10.00;;;34.20;56.30;;;;;;5059722;28;20449;-86
2022/08/29 08:49:46;;;;;;;9.60;8.80;;;35.60;54.20;;;;;;5062869;28;20833;-85
2022/08/29 08:52:19;;;;;;;10.83;9.83;;;36.30;51.70;;;;;;5061696;28;20503;-86
2022/08/29 08:54:52;;;;;;;9.77;8.77;;;37.20;50.10;;;;;;5060338;28;20573;-85
2022/08/29 08:57:21;;;;;;;9.13;8.40;;;38.20;47.90;;;;;;5060449;28;20445;-85
2022/08/29 08:59:54;;;;;;;9.63;8.80;;;38.70;46.60;;;;;;5060712;28;20447;-85
2022/08/29 09:02:33;;;;;;;9.60;8.60;;;39.10;45.40;;;;;;5048527;28;20494;-85
2022/08/29 09:05:16;;;;;;;10.37;9.53;;;39.50;44.40;;;;;;5044406;28;20440;-85
2022/08/29 09:07:52;;;;;;;10.37;9.13;;;40.20;43.40;;;;;;5037666;28;20905;-85
2022/08/29 09:10:27;;;;;;;8.83;7.93;;;40.90;41.70;;;;;;5052271;28;20488;-85
2022/08/29 09:13:05;;;;;;;10.37;9.00;;;41.40;40.60;;;;;;5057496;28;20475;-85
2022/08/29 09:15:38;;;;;;;11.30;8.90;;;41.30;40.30;;;;;;5056910;28;20441;-85
2022/08/29 09:18:08;;;;;;;8.30;7.60;;;41.40;40.50;;;;;;5056298;28;20527;-85
2022/08/29 09:20:39;;;;;;;8.40;7.77;;;41.90;39.40;;;;;;5058126;28;20878;-84
2022/08/29 09:23:18;;;;;;;8.97;8.20;;;41.70;38.80;;;;;;5060679;28;20481;-87
2022/08/29 09:25:44;;;;;;;8.73;7.93;;;41.70;38.40;;;;;;5055162;28;20848;-86
2022/08/29 09:28:11;;;;;;;9.50;8.70;;;41.90;38.70;;;;;;5054061;28;20457;-84
2022/08/29 09:30:41;;;;;;;7.33;6.70;;;42.20;37.80;;;;;;5054494;28;20484;-86
2022/08/29 09:33:09;;;;;;;7.50;6.90;;;42.00;37.80;;;;;;5053820;28;20990;-86
2022/08/29 09:35:39;;;;;;;8.60;7.93;;;42.20;37.50;;;;;;5054188;28;20449;-86
2022/08/29 09:38:08;;;;;;;9.73;8.63;;;42.30;37.10;;;;;;5054841;28;20453;-86
2022/08/29 09:40:45;;;;;;;7.67;7.07;;;42.70;36.80;;;;;;5054949;28;20441;-86
2022/08/29 09:43:22;;;;;;;7.27;6.77;;;42.90;36.20;;;;;;5056250;28;20465;-86
2022/08/29 09:46:14;;;;;;;8.33;7.60;;;42.90;35.90;;;;;;5056941;28;20448;-86
2022/08/29 09:48:44;;;;;;;6.70;6.10;;;41.10;36.40;;;;;;5058864;28;20449;-85
2022/08/29 09:51:20;;;;;;;7.83;7.13;;;40.50;38.00;;;;;;5058484;28;20558;-86
2022/08/29 09:53:46;;;;;;;7.10;6.40;;;40.90;38.80;;;;;;5057422;28;20440;-86
2022/08/29 09:56:17;;;;;;;6.93;6.30;;;41.70;37.20;;;;;;5058072;28;20941;-86
2022/08/29 09:58:44;;;;;;;7.37;6.67;;;42.50;36.20;;;;;;5056760;28;20452;-86
2022/08/29 10:01:17;;;;;;;7.40;6.70;;;43.10;35.00;;;;;;5057045;28;20448;-86
2022/08/29 10:03:54;;;;;;;6.60;6.10;;;43.60;34.30;;;;;;5056806;28;20510;-86
2022/08/29 10:06:23;;;;;;;6.77;6.13;;;42.60;34.30;;;;;;5059276;28;20483;-86
2022/08/29 10:08:58;;;;;;;7.23;6.73;;;42.90;35.30;;;;;;5057934;28;20965;-86
2022/08/29 10:11:29;;;;;;;7.30;6.13;;;42.80;34.80;;;;;;5058532;28;20480;-85
2022/08/29 10:14:00;;;;;;;6.37;5.87;;;42.10;35.20;;;;;;5057911;28;20857;-85
2022/08/29 10:16:38;;;;;;;6.73;6.13;;;41.20;35.90;;;;;;5059715;28;20476;-85
2022/08/29 10:19:09;;;;;;;6.50;6.00;;;41.70;35.70;;;;;;5076037;28;20437;-85
2022/08/29 10:21:46;;;;;;;6.83;6.20;;;42.50;35.70;;;;;;5076272;28;20441;-85
2022/08/29 10:24:33;;;;;;;6.90;6.10;;;41.50;35.20;;;;;;5076808;28;20517;-86
2022/08/29 10:27:07;;;;;;;7.63;7.07;;;39.00;38.30;;;;;;5062721;28;20452;-85
2022/08/29 10:29:54;;;;;;;7.33;6.73;;;39.90;39.80;;;;;;5053869;28;20455;-85
2022/08/29 10:32:36;;;;;;;7.30;6.53;;;41.00;36.80;;;;;;5053484;28;20495;-84
2022/08/29 10:35:11;;;;;;;5.80;5.30;;;39.40;37.70;;;;;;5054223;28;20843;-84
2022/08/29 10:37:50;;;;;;;6.37;5.57;;;39.60;38.10;;;;;;5054131;28;20964;-86
2022/08/29 10:40:25;;;;;;;7.00;6.33;;;40.90;37.20;;;;;;5055836;28;20445;-85
2022/08/29 10:43:05;;;;;;;6.93;6.30;;;40.50;36.90;;;;;;5054601;28;20574;-85
2022/08/29 10:45:39;;;;;;;6.43;5.93;;;41.80;36.10;;;;;;5055619;28;20456;-86
2022/08/29 10:48:10;;;;;;;6.50;5.70;;;42.90;34.30;;;;;;5062206;28;20453;-85
2022/08/29 10:50:58;;;;;;;7.40;5.70;;;43.30;33.10;;;;;;5056987;28;20488;-85
2022/08/29 10:53:30;;;;;;;5.30;4.80;;;43.20;32.80;;;;;;5054162;28;20985;-85
2022/08/29 10:56:01;;;;;;;6.17;5.47;;;43.80;31.80;;;;;;5053130;28;20472;-85
2022/08/29 10:58:45;;;;;;;7.33;5.77;;;43.70;31.40;;;;;;5053919;28;20460;-85
2022/08/29 11:01:21;;;;;;;4.83;4.33;;;43.60;31.50;;;;;;5054514;28;20444;-85
2022/08/29 11:03:53;;;;;;;5.47;4.47;;;44.00;31.20;;;;;;5071077;28;20475;-87
2022/08/29 11:06:24;;;;;;;4.70;4.30;;;43.00;32.20;;;;;;5075745;28;20437;-85
2022/08/29 11:08:59;;;;;;;6.90;4.70;;;43.60;31.40;;;;;;5060771;28;20487;-86
2022/08/29 11:11:28;;;;;;;7.40;6.80;;;44.00;31.10;;;;;;5052857;28;20538;-86
2022/08/29 11:14:00;;;;;;;6.10;5.50;;;44.80;30.50;;;;;;5052937;28;20441;-85
2022/08/29 11:16:32;;;;;;;6.20;4.93;;;44.00;30.60;;;;;;5053790;28;20449;-85
2022/08/29 11:19:05;;;;;;;6.13;5.43;;;44.10;30.30;;;;;;5053730;28;20449;-85
2022/08/29 11:21:37;;;;;;;6.07;5.07;;;43.80;30.40;;;;;;5054271;28;20449;-85
2022/08/29 11:24:09;;;;;;;7.10;5.00;;;43.00;31.10;;;;;;5054342;28;20445;-85
2022/08/29 11:26:52;;;;;;;6.87;4.90;;;43.80;30.80;;;;;;5054926;28;20536;-85
2022/08/29 11:29:26;;;;;;;5.47;4.90;;;43.80;30.40;;;;;;5053308;28;20449;-85
2022/08/29 11:31:59;;;;;;;5.77;4.90;;;44.60;30.00;;;;;;5054417;28;20491;-85
2022/08/29 11:34:43;;;;;;;6.37;5.73;;;43.80;29.60;;;;;;5075839;28;20453;-87
2022/08/29 11:37:30;;;;;;;5.10;4.60;;;43.40;30.30;;;;;;5066060;28;20849;-85
2022/08/29 11:40:04;;;;;;;5.50;5.00;;;42.50;31.50;;;;;;5059822;28;20464;-85
2022/08/29 11:42:35;;;;;;;5.67;5.27;;;42.40;30.90;;;;;;5063742;28;20500;-85
2022/08/29 11:45:04;;;;;;;7.10;5.80;;;43.10;31.20;;;;;;5064015;28;20441;-85
2022/08/29 11:47:37;;;;;;;7.00;5.40;;;44.30;29.90;;;;;;5059728;28;20448;-85
2022/08/29 11:50:17;;;;;;;7.40;5.07;;;44.40;29.30;;;;;;5056526;28;20468;-86
2022/08/29 11:52:51;;;;;;;5.27;4.70;;;43.20;29.40;;;;;;5055990;28;20492;-85
2022/08/29 11:55:30;;;;;;;5.53;5.00;;;43.40;30.10;;;;;;5056967;28;20535;-85
2022/08/29 11:58:01;;;;;;;4.57;4.17;;;44.20;29.60;;;;;;5058076;28;20469;-85
2022/08/29 12:00:52;;;;;;;6.40;4.73;;;45.10;28.60;;;;;;5060198;28;20445;-86
2022/08/29 12:03:56;;;;;;;6.73;5.83;;;45.10;28.40;;;;;;5074578;22;20488;-88
2022/08/29 12:06:38;;;;;;;5.07;4.60;;;45.00;28.50;;;;;;5046576;28;20444;-85
2022/08/29 12:09:17;;;;;;;6.17;4.40;;;44.10;28.90;;;;;;5041265;28;20456;-86
2022/08/29 12:12:27;;;;;;;6.03;5.40;;;44.50;28.90;;;;;;5043614;28;20505;-86
2022/08/29 12:14:55;;;;;;;5.23;4.73;;;44.30;28.80;;;;;;5027790;28;20450;-86
2022/08/29 12:17:49;;;;;;;5.80;5.23;;;41.50;30.00;;;;;;5027683;28;20522;-86
2022/08/29 12:20:32;;;;;;;6.47;5.63;;;41.70;30.80;;;;;;5002300;28;20450;-87
2022/08/29 12:23:02;;;;;;;4.80;4.40;;;42.50;30.00;;;;;;5039809;28;20493;-87
2022/08/29 12:25:41;;;;;;;4.70;4.33;;;43.80;29.30;;;;;;5039433;28;20439;-86
2022/08/29 12:28:43;;;;;;;3.90;3.60;;;44.80;28.30;;;;;;5023233;28;20447;-85
2022/08/29 12:31:24;;;;;;;4.93;4.43;;;44.50;28.10;;;;;;5017572;28;20451;-86
2022/08/29 12:34:18;;;;;;;4.97;4.17;;;44.50;28.10;;;;;;5016847;28;20463;-86
2022/08/29 12:37:12;;;;;;;4.90;4.50;;;44.50;28.40;;;;;;5019987;28;20459;-86
2022/08/29 12:39:58;;;;;;;5.57;5.17;;;44.50;28.00;;;;;;5017135;28;20462;-85
2022/08/29 12:42:36;;;;;;;5.60;4.77;;;44.00;28.40;;;;;;5016191;28;20462;-86
2022/08/29 12:45:06;;;;;;;4.83;4.33;;;42.20;29.50;;;;;;5015462;28;20940;-86
2022/08/29 12:47:38;;;;;;;5.30;4.80;;;41.70;30.50;;;;;;5017248;28;20805;-87
2022/08/29 12:50:14;;;;;;;5.70;4.90;;;42.20;30.30;;;;;;5037537;28;20465;-86
2022/08/29 12:52:40;;;;;;;5.50;4.97;;;41.90;30.20;;;;;;5029964;28;20508;-86
2022/08/29 12:55:23;;;;;;;5.70;5.23;;;41.80;30.00;;;;;;5016310;28;20458;-86
2022/08/29 12:57:52;;;;;;;5.33;4.80;;;41.70;30.00;;;;;;5019096;28;20958;-86